8OA9 weather

Margos Sky Ranch Airport
Seville, Ohio, United States

Public forecast

Using degrees Fahrenheit for public forecast. Weather courtesy of forecast.io.

Closest aviation weather report (METAR) to Margos Sky Ranch Airport

Closest report is Wayne County Airport, 10.7 nm (19.8 km) SSW. Retrieved 2020/01/29 06:56 UTC (42 minutes ago):

KBJJ 290656Z AUTO 01003KT 10SM OVC027 M01/M05 A3008 RMK AO2 SLP198 T10061050

Closest aviation forecast (TAF) to Margos Sky Ranch Airport

Closest forecast is Akron Canton Regional Airport, 18.6 nm (34.5 km) ESE. Retrieved 2020/01/29 06:42 UTC (56 minutes ago):

TAF KCAK 290541Z 2906/3006 33004KT P6SM OVC015 FM290900 VRB03KT P6SM OVC025 FM292100 01004KT P6SM BKN020 FM300300 VRB03KT P6SM BKN015